Time;durP1;ratioP1;P1;durP2;ratioP2;P2;SDS_P1;SDS_P2;PMS_P1;PMS_P2;Temp;Humidity;BMP_temperature;BMP_pressure;BME280_temperature;BME280_humidity;BME280_pressure;Samples;Min_cycle;Max_cycle;Signal;HPM_P1;HPM_P2
2023/01/13 00:01:19;;;;;;;;;;;;;;;;;;5104985;27;86950;-39
2023/01/13 00:03:45;;;;;;;;;;;;;;;;;;5104019;27;87151;-39
2023/01/13 00:06:10;;;;;;;;;;;;;;;;;;5104688;27;87203;-39
2023/01/13 00:08:36;;;;;;;;;;;;;;;;;;5107179;27;86955;-39
2023/01/13 00:11:02;;;;;;;;;;;;;;;;;;5105001;27;86224;-39
2023/01/13 00:13:30;;;;;;;;;;;;;;;;;;5104573;27;86998;-39
2023/01/13 00:15:56;;;;;;;;;;;;;;;;;;5103784;27;89947;-39
2023/01/13 00:18:22;;;;;;;;;;;;;;;;;;5103901;27;88097;-39
2023/01/13 00:20:48;;;;;;;;;;;;;;;;;;5104305;27;87880;-39
2023/01/13 00:23:13;;;;;;;;;;;;;;;;;;5104072;27;88027;-39
2023/01/13 00:25:39;;;;;;;;;;;;;;;;;;5104464;27;86980;-39
2023/01/13 00:28:08;;;;;;;;;;;;;;;;;;5106880;27;87127;-39
2023/01/13 00:30:37;;;;;;;;;;;;;;;;;;5104233;27;87102;-39
2023/01/13 00:33:03;;;;;;;;;;;;;;;;;;5103735;27;87531;-39
2023/01/13 00:35:28;;;;;;;;;;;;;;;;;;5104300;27;86409;-39
2023/01/13 00:37:54;;;;;;;;;;;;;;;;;;5104297;27;87213;-39
2023/01/13 00:40:20;;;;;;;;;;;;;;;;;;5085658;27;88698;-39
2023/01/13 00:45:30;;;;;;;;;;;;;;;;;;5103712;27;87042;-39
2023/01/13 00:47:56;;;;;;;;;;;;;;;;;;5104649;27;87066;-39
2023/01/13 00:50:22;;;;;;;;;;;;;;;;;;5110540;27;87977;-39
2023/01/13 00:52:48;;;;;;;;;;;;;;;;;;5107713;27;87090;-39
2023/01/13 00:55:14;;;;;;;;;;;;;;;;;;5106980;27;88816;-39
2023/01/13 00:57:40;;;;;;;;;;;;;;;;;;5107651;27;87405;-39
2023/01/13 01:00:06;;;;;;;;;;;;;;;;;;5108140;27;86838;-39
2023/01/13 01:02:31;;;;;;;;;;;;;;;;;;5107127;27;87975;-39
2023/01/13 01:04:58;;;;;;;;;;;;;;;;;;5107482;27;87203;-39
2023/01/13 01:07:24;;;;;;;;;;;;;;;;;;5106896;27;87992;-39
2023/01/13 01:09:50;;;;;;;;;;;;;;;;;;5107134;27;87230;-39
2023/01/13 01:12:16;;;;;;;;;;;;;;;;;;5110414;27;87959;-39
2023/01/13 01:14:42;;;;;;;;;;;;;;;;;;5106845;27;87149;-39
2023/01/13 01:17:08;;;;;;;;;;;;;;;;;;5107153;27;87212;-39
2023/01/13 01:19:36;;;;;;;;;;;;;;;;;;5107424;27;87275;-39
2023/01/13 01:22:02;;;;;;;;;;;;;;;;;;5106820;27;89596;-39
2023/01/13 01:24:28;;;;;;;;;;;;;;;;;;5107576;27;86535;-39
2023/01/13 01:26:53;;;;;;;;;;;;;;;;;;5107054;27;86983;-39
2023/01/13 01:29:19;;;;;;;;;;;;;;;;;;5106486;27;88069;-39
2023/01/13 01:31:45;;;;;;;;;;;;;;;;;;5106480;27;88059;-39
2023/01/13 01:34:11;;;;;;;;;;;;;;;;;;5109832;27;87931;-39
2023/01/13 01:36:37;;;;;;;;;;;;;;;;;;5106925;27;87031;-39
2023/01/13 01:39:03;;;;;;;;;;;;;;;;;;5106985;27;86919;-39
2023/01/13 01:41:29;;;;;;;;;;;;;;;;;;5106786;27;88051;-39
2023/01/13 01:43:58;;;;;;;;;;;;;;;;;;5106556;27;87084;-39
2023/01/13 01:46:23;;;;;;;;;;;;;;;;;;5106813;27;87572;-39
2023/01/13 01:48:49;;;;;;;;;;;;;;;;;;5106431;27;87421;-39
2023/01/13 01:51:15;;;;;;;;;;;;;;;;;;5106676;27;87226;-39
2023/01/13 01:53:41;;;;;;;;;;;;;;;;;;5106858;27;87023;-39
2023/01/13 01:56:07;;;;;;;;;;;;;;;;;;5108728;27;87990;-39
2023/01/13 01:58:33;;;;;;;;;;;;;;;;;;5106477;27;87866;-39
2023/01/13 02:00:59;;;;;;;;;;;;;;;;;;5106176;27;88025;-39
2023/01/13 02:03:25;;;;;;;;;;;;;;;;;;5106841;27;87015;-39
2023/01/13 02:05:50;;;;;;;;;;;;;;;;;;5106571;27;87090;-39
2023/01/13 02:08:16;;;;;;;;;;;;;;;;;;5106049;27;88559;-39
2023/01/13 02:10:42;;;;;;;;;;;;;;;;;;5106408;27;87055;-39
2023/01/13 02:13:08;;;;;;;;;;;;;;;;;;5106937;27;86463;-39
2023/01/13 02:15:34;;;;;;;;;;;;;;;;;;5105874;27;88332;-39
2023/01/13 02:18:00;;;;;;;;;;;;;;;;;;5109591;27;86685;-39
2023/01/13 02:20:26;;;;;;;;;;;;;;;;;;5105739;27;88611;-39
2023/01/13 02:22:52;;;;;;;;;;;;;;;;;;5106403;27;87145;-39
2023/01/13 02:25:17;;;;;;;;;;;;;;;;;;5106277;27;87018;-39
2023/01/13 02:27:43;;;;;;;;;;;;;;;;;;5105460;27;88116;-39
2023/01/13 02:33:14;;;;;;;;;;;;;;;;;;5021675;28;87099;-39
2023/01/13 02:35:40;;;;;;;;;;;;;;;;;;5021632;28;87989;-39
2023/01/13 02:38:05;;;;;;;;;;;;;;;;;;5064008;27;86416;-39
2023/01/13 02:40:32;;;;;;;;;;;;;;;;;;5105213;27;89273;-39
2023/01/13 02:45:42;;;;;;;;;;;;;;;;;;5103797;27;87904;-39
2023/01/13 02:48:08;;;;;;;;;;;;;;;;;;5105195;27;88277;-39
2023/01/13 02:50:34;;;;;;;;;;;;;;;;;;5105854;27;87270;-39
2023/01/13 02:53:00;;;;;;;;;;;;;;;;;;5105738;27;86951;-39
2023/01/13 02:55:26;;;;;;;;;;;;;;;;;;5105009;27;89135;-39
2023/01/13 02:57:52;;;;;;;;;;;;;;;;;;5105716;27;87186;-39
2023/01/13 03:00:17;;;;;;;;;;;;;;;;;;5108462;27;86912;-39
2023/01/13 03:02:43;;;;;;;;;;;;;;;;;;5106516;27;86348;-39
2023/01/13 03:05:09;;;;;;;;;;;;;;;;;;5105549;27;86952;-39
2023/01/13 03:07:35;;;;;;;;;;;;;;;;;;5105171;27;88078;-39
2023/01/13 03:10:01;;;;;;;;;;;;;;;;;;5104782;27;88036;-39
2023/01/13 03:12:27;;;;;;;;;;;;;;;;;;5104880;27;87729;-39
2023/01/13 03:14:53;;;;;;;;;;;;;;;;;;5105036;27;88064;-39
2023/01/13 03:17:18;;;;;;;;;;;;;;;;;;5105441;27;87070;-39
2023/01/13 03:19:44;;;;;;;;;;;;;;;;;;5105753;27;87107;-39
2023/01/13 03:22:10;;;;;;;;;;;;;;;;;;5107841;27;87122;-39
2023/01/13 03:24:36;;;;;;;;;;;;;;;;;;5105095;27;87022;-39
2023/01/13 03:27:02;;;;;;;;;;;;;;;;;;5105506;27;87235;-39
2023/01/13 03:29:28;;;;;;;;;;;;;;;;;;5105207;27;87217;-39
2023/01/13 03:31:54;;;;;;;;;;;;;;;;;;5105239;27;86923;-39
2023/01/13 03:34:20;;;;;;;;;;;;;;;;;;5104050;27;88504;-39
2023/01/13 03:36:46;;;;;;;;;;;;;;;;;;5105176;27;86976;-39
2023/01/13 03:39:11;;;;;;;;;;;;;;;;;;5104986;27;87062;-39
2023/01/13 03:41:37;;;;;;;;;;;;;;;;;;5104863;27;87271;-39
2023/01/13 03:44:21;;;;;;;;;;;;;;;;;;5107841;27;87105;-39
2023/01/13 03:46:47;;;;;;;;;;;;;;;;;;5104597;27;87995;-39
2023/01/13 03:49:13;;;;;;;;;;;;;;;;;;5104606;27;86952;-39
2023/01/13 03:51:39;;;;;;;;;;;;;;;;;;5105106;27;86272;-39
2023/01/13 03:54:07;;;;;;;;;;;;;;;;;;5104619;27;88251;-39
2023/01/13 03:56:33;;;;;;;;;;;;;;;;;;5104438;27;87133;-39
2023/01/13 03:58:59;;;;;;;;;;;;;;;;;;5104117;27;87943;-39
2023/01/13 04:01:25;;;;;;;;;;;;;;;;;;5104316;27;87922;-39
2023/01/13 04:03:51;;;;;;;;;;;;;;;;;;5104560;27;87048;-39
2023/01/13 04:06:17;;;;;;;;;;;;;;;;;;5107325;27;87132;-39
2023/01/13 04:08:43;;;;;;;;;;;;;;;;;;5104674;27;87697;-39
2023/01/13 04:11:08;;;;;;;;;;;;;;;;;;5104708;27;86978;-39
2023/01/13 04:13:34;;;;;;;;;;;;;;;;;;5104376;27;88064;-39
2023/01/13 04:16:00;;;;;;;;;;;;;;;;;;5104963;27;86431;-39
2023/01/13 04:18:26;;;;;;;;;;;;;;;;;;5104688;27;87051;-39
2023/01/13 04:20:52;;;;;;;;;;;;;;;;;;5103827;27;87475;-39
2023/01/13 04:23:18;;;;;;;;;;;;;;;;;;5102583;27;88171;-39
2023/01/13 04:25:44;;;;;;;;;;;;;;;;;;5107139;27;87917;-39
2023/01/13 04:28:10;;;;;;;;;;;;;;;;;;5104155;27;87033;-39
2023/01/13 04:30:36;;;;;;;;;;;;;;;;;;5104529;27;87463;-39
2023/01/13 04:33:03;;;;;;;;;;;;;;;;;;5085222;27;90754;-39
2023/01/13 04:35:28;;;;;;;;;;;;;;;;;;5103849;27;87131;-39
2023/01/13 04:37:54;;;;;;;;;;;;;;;;;;5104155;27;87292;-39
2023/01/13 04:40:21;;;;;;;;;;;;;;;;;;5104372;27;87482;-39
2023/01/13 04:42:46;;;;;;;;;;;;;;;;;;5104113;27;87265;-39
2023/01/13 04:45:12;;;;;;;;;;;;;;;;;;5104205;27;87447;-39
2023/01/13 04:47:39;;;;;;;;;;;;;;;;;;5106032;27;89125;-39
2023/01/13 04:50:05;;;;;;;;;;;;;;;;;;5103422;27;89507;-39
2023/01/13 04:52:30;;;;;;;;;;;;;;;;;;5103798;27;87014;-39
2023/01/13 04:54:56;;;;;;;;;;;;;;;;;;5103989;27;87208;-39
2023/01/13 04:57:22;;;;;;;;;;;;;;;;;;5104036;27;87119;-39
2023/01/13 04:59:48;;;;;;;;;;;;;;;;;;5103687;27;87955;-39
2023/01/13 05:02:18;;;;;;;;;;;;;;;;;;5103891;27;87143;-39
2023/01/13 05:04:44;;;;;;;;;;;;;;;;;;5104002;27;88311;-39
2023/01/13 05:07:10;;;;;;;;;;;;;;;;;;5103478;27;88548;-39
2023/01/13 05:09:36;;;;;;;;;;;;;;;;;;5107010;27;87177;-39
2023/01/13 05:17:31;;;;;;;;;;;;;;;;;;5100889;27;86986;-39
2023/01/13 05:19:57;;;;;;;;;;;;;;;;;;5103464;27;87946;-39
2023/01/13 05:25:20;;;;;;;;;;;;;;;;;;5102848;27;86893;-39
2023/01/13 05:27:46;;;;;;;;;;;;;;;;;;5102888;27;87262;-39
2023/01/13 05:30:12;;;;;;;;;;;;;;;;;;5104093;27;86452;-39
2023/01/13 05:32:38;;;;;;;;;;;;;;;;;;5106361;27;87658;-39
2023/01/13 05:35:03;;;;;;;;;;;;;;;;;;5105874;27;87118;-39
2023/01/13 05:37:29;;;;;;;;;;;;;;;;;;5106514;27;88042;-39
2023/01/13 05:45:25;;;;;;;;;;;;;;;;;;5105311;27;87074;-39
2023/01/13 05:47:50;;;;;;;;;;;;;;;;;;5106624;27;87975;-39
2023/01/13 05:50:16;;;;;;;;;;;;;;;;;;5106655;27;87129;-39
2023/01/13 05:52:42;;;;;;;;;;;;;;;;;;5106811;27;87052;-39
2023/01/13 05:55:08;;;;;;;;;;;;;;;;;;5109627;27;87568;-39
2023/01/13 05:57:34;;;;;;;;;;;;;;;;;;5106778;27;87020;-39
2023/01/13 06:00:00;;;;;;;;;;;;;;;;;;5106516;27;87334;-39
2023/01/13 06:02:26;;;;;;;;;;;;;;;;;;5106272;27;88029;-39
2023/01/13 06:04:51;;;;;;;;;;;;;;;;;;5106739;27;87830;-39
2023/01/13 06:07:17;;;;;;;;;;;;;;;;;;5106199;27;88169;-39
2023/01/13 06:09:43;;;;;;;;;;;;;;;;;;5106520;27;87200;-39
2023/01/13 06:12:09;;;;;;;;;;;;;;;;;;5106641;27;86975;-39
2023/01/13 06:14:41;;;;;;;;;;;;;;;;;;5106107;27;88151;-39
2023/01/13 06:17:07;;;;;;;;;;;;;;;;;;5109168;27;86894;-39
2023/01/13 06:19:33;;;;;;;;;;;;;;;;;;5087916;27;90545;-39
2023/01/13 06:21:59;;;;;;;;;;;;;;;;;;5106186;27;87154;-39
2023/01/13 06:24:25;;;;;;;;;;;;;;;;;;5106318;27;87240;-39
2023/01/13 06:26:50;;;;;;;;;;;;;;;;;;5105176;27;89030;-39
2023/01/13 06:29:16;;;;;;;;;;;;;;;;;;5106480;27;87063;-39
2023/01/13 06:31:42;;;;;;;;;;;;;;;;;;5106436;27;86905;-39
2023/01/13 06:34:10;;;;;;;;;;;;;;;;;;5105928;27;88057;-39
2023/01/13 06:36:36;;;;;;;;;;;;;;;;;;5108650;27;87127;-39
2023/01/13 06:39:02;;;;;;;;;;;;;;;;;;5105735;27;87995;-39
2023/01/13 06:44:12;;;;;;;;;;;;;;;;;;5105121;27;86260;-39
2023/01/13 06:46:38;;;;;;;;;;;;;;;;;;5104480;27;87979;-39
2023/01/13 06:49:04;;;;;;;;;;;;;;;;;;5105362;27;87220;-39
2023/01/13 06:51:30;;;;;;;;;;;;;;;;;;5105419;27;88006;-39
2023/01/13 06:53:55;;;;;;;;;;;;;;;;;;5105574;27;87973;-39
2023/01/13 06:56:21;;;;;;;;;;;;;;;;;;5105795;27;86850;-39
2023/01/13 06:58:47;;;;;;;;;;;;;;;;;;5108339;27;86956;-39
2023/01/13 07:01:13;;;;;;;;;;;;;;;;;;5105736;27;87297;-39
2023/01/13 07:03:39;;;;;;;;;;;;;;;;;;5105828;27;86830;-39
2023/01/13 07:06:05;;;;;;;;;;;;;;;;;;5105157;27;88120;-39
2023/01/13 07:08:31;;;;;;;;;;;;;;;;;;5106187;27;86445;-39
2023/01/13 07:10:57;;;;;;;;;;;;;;;;;;5105741;27;86923;-39
2023/01/13 07:16:07;;;;;;;;;;;;;;;;;;5103984;27;87853;-39
2023/01/13 07:18:33;;;;;;;;;;;;;;;;;;5105143;27;87959;-39
2023/01/13 07:20:59;;;;;;;;;;;;;;;;;;5107921;27;87285;-39
2023/01/13 07:23:25;;;;;;;;;;;;;;;;;;5105121;27;87217;-39
2023/01/13 07:25:51;;;;;;;;;;;;;;;;;;5104827;27;88365;-39
2023/01/13 07:28:17;;;;;;;;;;;;;;;;;;5105203;27;87317;-39
2023/01/13 07:30:43;;;;;;;;;;;;;;;;;;5105463;27;86966;-39
2023/01/13 07:33:09;;;;;;;;;;;;;;;;;;5104915;27;88626;-39
2023/01/13 07:35:35;;;;;;;;;;;;;;;;;;5105354;27;86749;-39
2023/01/13 07:38:01;;;;;;;;;;;;;;;;;;5105303;27;87136;-39
2023/01/13 07:40:26;;;;;;;;;;;;;;;;;;5103990;27;88943;-39
2023/01/13 07:45:36;;;;;;;;;;;;;;;;;;5104124;27;86958;-39
2023/01/13 07:48:02;;;;;;;;;;;;;;;;;;5104403;27;87104;-39
2023/01/13 07:50:28;;;;;;;;;;;;;;;;;;5104938;27;86968;-39
2023/01/13 07:52:54;;;;;;;;;;;;;;;;;;5104719;27;87955;-39
2023/01/13 07:55:20;;;;;;;;;;;;;;;;;;5105068;27;86979;-39
2023/01/13 07:57:46;;;;;;;;;;;;;;;;;;5104979;27;86984;-39
2023/01/13 08:00:12;;;;;;;;;;;;;;;;;;5104588;27;87198;-39
2023/01/13 08:02:38;;;;;;;;;;;;;;;;;;5104657;27;87022;-39
2023/01/13 08:05:03;;;;;;;;;;;;;;;;;;5106688;27;87927;-39
2023/01/13 08:07:29;;;;;;;;;;;;;;;;;;5104615;27;87018;-39
2023/01/13 08:09:55;;;;;;;;;;;;;;;;;;5104661;27;87471;-39
2023/01/13 08:15:08;;;;;;;;;;;;;;;;;;5104501;27;86887;-39
2023/01/13 08:17:34;;;;;;;;;;;;;;;;;;5104148;27;88553;-39
2023/01/13 08:20:00;;;;;;;;;;;;;;;;;;5104097;27;88054;-39
2023/01/13 08:22:26;;;;;;;;;;;;;;;;;;5104975;27;86471;-39
2023/01/13 08:24:52;;;;;;;;;;;;;;;;;;5104663;27;87336;-39
2023/01/13 08:27:19;;;;;;;;;;;;;;;;;;5107008;27;88616;-39
2023/01/13 08:29:45;;;;;;;;;;;;;;;;;;5103349;27;87956;-39
2023/01/13 08:32:11;;;;;;;;;;;;;;;;;;5103980;27;88017;-39
2023/01/13 08:34:36;;;;;;;;;;;;;;;;;;5104393;27;87105;-39
2023/01/13 08:37:02;;;;;;;;;;;;;;;;;;5104228;27;87187;-39
2023/01/13 08:39:28;;;;;;;;;;;;;;;;;;5103875;27;87955;-39
2023/01/13 08:41:54;;;;;;;;;;;;;;;;;;5104399;27;87336;-39
2023/01/13 08:44:20;;;;;;;;;;;;;;;;;;5104309;27;86925;-39
2023/01/13 08:46:46;;;;;;;;;;;;;;;;;;5107372;27;87170;-39
2023/01/13 08:49:12;;;;;;;;;;;;;;;;;;5103491;27;88912;-39
2023/01/13 08:51:37;;;;;;;;;;;;;;;;;;5103932;27;87762;-39
2023/01/13 08:54:03;;;;;;;;;;;;;;;;;;5103240;27;88135;-39
2023/01/13 08:56:29;;;;;;;;;;;;;;;;;;5103872;27;87805;-39
2023/01/13 08:58:55;;;;;;;;;;;;;;;;;;5103337;27;88301;-39
2023/01/13 09:01:21;;;;;;;;;;;;;;;;;;5104099;27;87171;-39
2023/01/13 09:03:47;;;;;;;;;;;;;;;;;;5103993;27;87033;-39
2023/01/13 09:06:13;;;;;;;;;;;;;;;;;;5103727;27;88297;-39
2023/01/13 09:08:39;;;;;;;;;;;;;;;;;;5107236;27;87184;-39
2023/01/13 09:13:10;;;;;;;;;;;;;;;;;;5107899;27;87324;-39
2023/01/13 09:13:50;;;;;;;;;;;;;;;;;;5107091;27;87105;-39
2023/01/13 09:16:16;;;;;;;;;;;;;;;;;;5107559;27;87054;-39
2023/01/13 09:18:42;;;;;;;;;;;;;;;;;;5106365;27;88897;-39
2023/01/13 09:21:08;;;;;;;;;;;;;;;;;;5107363;27;87197;-39
2023/01/13 09:23:34;;;;;;;;;;;;;;;;;;5107295;27;86942;-39
2023/01/13 09:26:00;;;;;;;;;;;;;;;;;;5106892;27;88176;-39
2023/01/13 09:28:26;;;;;;;;;;;;;;;;;;5107027;27;86932;-39
2023/01/13 09:30:52;;;;;;;;;;;;;;;;;;5109675;27;88315;-39
2023/01/13 09:36:02;;;;;;;;;;;;;;;;;;5106620;27;86267;-39
2023/01/13 09:38:28;;;;;;;;;;;;;;;;;;5106743;27;88233;-39
2023/01/13 09:40:54;;;;;;;;;;;;;;;;;;5106974;27;87288;-39
2023/01/13 09:46:04;;;;;;;;;;;;;;;;;;5105240;27;87101;-39
2023/01/13 09:48:30;;;;;;;;;;;;;;;;;;5106474;27;87102;-39
2023/01/13 09:50:56;;;;;;;;;;;;;;;;;;5107132;27;86993;-39
2023/01/13 09:53:22;;;;;;;;;;;;;;;;;;5109229;27;87782;-39
2023/01/13 09:55:48;;;;;;;;;;;;;;;;;;5106964;27;86984;-39
2023/01/13 09:58:13;;;;;;;;;;;;;;;;;;5106410;27;88275;-39
2023/01/13 10:00:39;;;;;;;;;;;;;;;;;;5107190;27;86357;-39
2023/01/13 10:03:05;;;;;;;;;;;;;;;;;;5106782;27;87004;-39
2023/01/13 10:05:31;;;;;;;;;;;;;;;;;;5106247;27;88262;-39
2023/01/13 10:07:57;;;;;;;;;;;;;;;;;;5105501;27;87849;-39
2023/01/13 10:10:23;;;;;;;;;;;;;;;;;;5106662;27;87880;-39
2023/01/13 10:15:33;;;;;;;;;;;;;;;;;;5108227;27;87052;-39
2023/01/13 10:17:59;;;;;;;;;;;;;;;;;;5106181;27;87942;-41
2023/01/13 10:20:25;;;;;;;;;;;;;;;;;;5106186;27;87394;-39
2023/01/13 10:22:51;;;;;;;;;;;;;;;;;;5106315;27;87300;-39
2023/01/13 10:25:17;;;;;;;;;;;;;;;;;;5106635;27;87193;-39
2023/01/13 10:27:45;;;;;;;;;;;;;;;;;;5106366;27;87153;-39
2023/01/13 10:30:11;;;;;;;;;;;;;;;;;;5106082;27;87052;-39
2023/01/13 10:32:37;;;;;;;;;;;;;;;;;;5105265;27;88889;-40
2023/01/13 10:35:03;;;;;;;;;;;;;;;;;;5105945;27;87248;-39
2023/01/13 10:37:29;;;;;;;;;;;;;;;;;;5108531;27;86982;-39
2023/01/13 10:39:55;;;;;;;;;;;;;;;;;;5105946;27;87110;-39
2023/01/13 10:42:22;;;;;;;;;;;;;;;;;;5106184;27;87078;-39
2023/01/13 10:44:48;;;;;;;;;;;;;;;;;;5105722;27;88086;-39
2023/01/13 10:47:14;;;;;;;;;;;;;;;;;;5105779;27;87180;-39
2023/01/13 10:49:40;;;;;;;;;;;;;;;;;;5105602;27;86925;-39
2023/01/13 10:52:06;;;;;;;;;;;;;;;;;;5105663;27;88220;-39
2023/01/13 10:54:32;;;;;;;;;;;;;;;;;;5106089;27;86901;-37
2023/01/13 10:56:57;;;;;;;;;;;;;;;;;;5107815;27;88134;-39
2023/01/13 10:59:25;;;;;;;;;;;;;;;;;;5105775;27;87656;-39
2023/01/13 11:01:51;;;;;;;;;;;;;;;;;;5105594;27;88536;-39
2023/01/13 11:04:17;;;;;;;;;;;;;;;;;;5105248;27;88019;-39
2023/01/13 11:06:43;;;;;;;;;;;;;;;;;;5105543;27;87281;-39
2023/01/13 11:09:09;;;;;;;;;;;;;;;;;;5105705;27;87218;-39
2023/01/13 11:11:34;;;;;;;;;;;;;;;;;;5105561;27;88085;-39
2023/01/13 11:16:45;;;;;;;;;;;;;;;;;;5105338;27;86892;-39
2023/01/13 11:19:10;;;;;;;;;;;;;;;;;;5107981;27;88081;-39
2023/01/13 11:21:36;;;;;;;;;;;;;;;;;;5104768;27;87974;-39
2023/01/13 11:24:02;;;;;;;;;;;;;;;;;;5105312;27;87312;-39
2023/01/13 11:26:28;;;;;;;;;;;;;;;;;;5105408;27;87329;-39
2023/01/13 11:28:54;;;;;;;;;;;;;;;;;;5104944;27;88396;-39
2023/01/13 11:31:20;;;;;;;;;;;;;;;;;;5104558;27;88514;-39
2023/01/13 11:33:46;;;;;;;;;;;;;;;;;;5104937;27;87043;-39
2023/01/13 11:36:12;;;;;;;;;;;;;;;;;;5105337;27;86952;-39
2023/01/13 11:38:38;;;;;;;;;;;;;;;;;;5105088;27;88352;-39
2023/01/13 11:41:03;;;;;;;;;;;;;;;;;;5108062;27;87093;-39
2023/01/13 11:43:29;;;;;;;;;;;;;;;;;;5104761;27;88108;-39
2023/01/13 11:45:55;;;;;;;;;;;;;;;;;;5104387;27;88192;-39
2023/01/13 11:48:21;;;;;;;;;;;;;;;;;;5104062;27;87712;-39
2023/01/13 11:50:49;;;;;;;;;;;;;;;;;;5104632;27;87998;-39
2023/01/13 11:53:15;;;;;;;;;;;;;;;;;;5104791;27;87110;-39
2023/01/13 11:55:41;;;;;;;;;;;;;;;;;;5104963;27;87058;-39
2023/01/13 11:58:07;;;;;;;;;;;;;;;;;;5104493;27;87863;-39
2023/01/13 12:00:33;;;;;;;;;;;;;;;;;;5104946;27;87231;-39
2023/01/13 12:02:59;;;;;;;;;;;;;;;;;;5107192;27;88587;-39
2023/01/13 12:05:25;;;;;;;;;;;;;;;;;;5104705;27;87150;-39
2023/01/13 12:07:51;;;;;;;;;;;;;;;;;;5104809;27;86893;-39
2023/01/13 12:10:16;;;;;;;;;;;;;;;;;;5103763;27;88935;-39
2023/01/13 12:12:42;;;;;;;;;;;;;;;;;;5104761;27;87075;-39
2023/01/13 12:15:08;;;;;;;;;;;;;;;;;;5104275;27;88360;-39
2023/01/13 12:17:34;;;;;;;;;;;;;;;;;;5103971;27;88310;-39
2023/01/13 12:20:00;;;;;;;;;;;;;;;;;;5104298;27;86968;-39
2023/01/13 12:22:26;;;;;;;;;;;;;;;;;;5085664;27;90162;-39
2023/01/13 12:24:52;;;;;;;;;;;;;;;;;;5107194;27;87967;-39
2023/01/13 12:27:18;;;;;;;;;;;;;;;;;;5104914;27;86938;-39
2023/01/13 12:29:44;;;;;;;;;;;;;;;;;;5103589;27;89536;-39
2023/01/13 12:32:10;;;;;;;;;;;;;;;;;;5104058;27;87190;-39
2023/01/13 12:34:35;;;;;;;;;;;;;;;;;;5103833;27;87793;-39
2023/01/13 12:37:01;;;;;;;;;;;;;;;;;;5103916;27;87974;-39
2023/01/13 12:39:27;;;;;;;;;;;;;;;;;;5104462;27;87362;-39
2023/01/13 12:44:38;;;;;;;;;;;;;;;;;;5105685;27;87342;-39
2023/01/13 12:47:03;;;;;;;;;;;;;;;;;;5110703;27;86834;-39
2023/01/13 12:49:29;;;;;;;;;;;;;;;;;;5107199;27;87963;-39
2023/01/13 12:51:55;;;;;;;;;;;;;;;;;;5108233;27;86294;-39
2023/01/13 12:54:21;;;;;;;;;;;;;;;;;;5107828;27;87013;-39
2023/01/13 12:56:47;;;;;;;;;;;;;;;;;;5107342;27;88152;-39
2023/01/13 12:59:13;;;;;;;;;;;;;;;;;;5107324;27;88118;-39
2023/01/13 13:01:39;;;;;;;;;;;;;;;;;;5107860;27;87663;-39
2023/01/13 13:04:05;;;;;;;;;;;;;;;;;;5107466;27;87166;-39
2023/01/13 13:06:31;;;;;;;;;;;;;;;;;;5110635;27;86996;-39
2023/01/13 13:08:57;;;;;;;;;;;;;;;;;;5107217;27;88124;-39
2023/01/13 13:14:08;;;;;;;;;;;;;;;;;;5107554;27;86915;-39
2023/01/13 13:16:35;;;;;;;;;;;;;;;;;;5107533;27;87293;-39
2023/01/13 13:19:00;;;;;;;;;;;;;;;;;;5107217;27;86984;-39
2023/01/13 13:21:26;;;;;;;;;;;;;;;;;;5107498;27;86933;-39
2023/01/13 13:23:52;;;;;;;;;;;;;;;;;;5106546;27;88813;-39
2023/01/13 13:26:23;;;;;;;;;;;;;;;;;;5107392;27;87199;-39
2023/01/13 13:28:49;;;;;;;;;;;;;;;;;;5109517;27;88388;-39
2023/01/13 13:31:16;;;;;;;;;;;;;;;;;;5107326;27;87154;-39
2023/01/13 13:33:42;;;;;;;;;;;;;;;;;;5107362;27;86986;-39
2023/01/13 13:36:07;;;;;;;;;;;;;;;;;;5106705;27;87984;-39
2023/01/13 13:46:47;;;;;;;;;;;;;;;;;;5105818;27;86968;-39
2023/01/13 13:49:13;;;;;;;;;;;;;;;;;;5105934;27;88171;-39
2023/01/13 13:51:40;;;;;;;;;;;;;;;;;;5109429;27;87721;-39
2023/01/13 13:54:06;;;;;;;;;;;;;;;;;;5106920;27;87110;-39
2023/01/13 13:56:32;;;;;;;;;;;;;;;;;;5106068;27;88142;-39
2023/01/13 13:58:58;;;;;;;;;;;;;;;;;;5106971;27;87169;-39
2023/01/13 14:01:24;;;;;;;;;;;;;;;;;;5106921;27;86932;-39
2023/01/13 14:03:50;;;;;;;;;;;;;;;;;;5105983;27;89405;-39
2023/01/13 14:06:15;;;;;;;;;;;;;;;;;;5106904;27;86504;-39
2023/01/13 14:08:43;;;;;;;;;;;;;;;;;;5106895;27;87021;-39
2023/01/13 14:11:09;;;;;;;;;;;;;;;;;;5106272;27;87099;-39
2023/01/13 14:13:35;;;;;;;;;;;;;;;;;;5108975;27;88012;-39
2023/01/13 14:16:00;;;;;;;;;;;;;;;;;;5106329;27;87178;-39
2023/01/13 14:18:26;;;;;;;;;;;;;;;;;;5106558;27;87107;-39
2023/01/13 14:20:53;;;;;;;;;;;;;;;;;;5106330;27;86893;-39
2023/01/13 14:23:19;;;;;;;;;;;;;;;;;;5105905;27;89441;-39
2023/01/13 14:25:44;;;;;;;;;;;;;;;;;;5106447;27;87185;-39
2023/01/13 14:28:10;;;;;;;;;;;;;;;;;;5106455;27;87392;-39
2023/01/13 14:30:36;;;;;;;;;;;;;;;;;;5106051;27;87221;-39
2023/01/13 14:33:02;;;;;;;;;;;;;;;;;;5106436;27;87112;-39
2023/01/13 14:35:28;;;;;;;;;;;;;;;;;;5108669;27;87007;-39
2023/01/13 14:37:54;;;;;;;;;;;;;;;;;;5105407;27;88007;-39
2023/01/13 14:40:20;;;;;;;;;;;;;;;;;;5106083;27;87870;-39
2023/01/13 14:42:47;;;;;;;;;;;;;;;;;;5105876;27;88030;-39
2023/01/13 14:45:13;;;;;;;;;;;;;;;;;;5106177;27;87107;-39
2023/01/13 14:47:39;;;;;;;;;;;;;;;;;;5106206;27;86824;-39
2023/01/13 14:50:05;;;;;;;;;;;;;;;;;;5105410;27;88080;-39
2023/01/13 14:52:31;;;;;;;;;;;;;;;;;;5105777;27;87211;-39
2023/01/13 14:54:57;;;;;;;;;;;;;;;;;;5109123;27;86813;-39
2023/01/13 14:57:23;;;;;;;;;;;;;;;;;;5105822;27;87193;-39
2023/01/13 14:59:50;;;;;;;;;;;;;;;;;;5105599;27;89092;-39
2023/01/13 15:02:16;;;;;;;;;;;;;;;;;;5104874;27;88271;-39
2023/01/13 15:04:42;;;;;;;;;;;;;;;;;;5105755;27;87228;-39
2023/01/13 15:07:08;;;;;;;;;;;;;;;;;;5104580;27;86991;-39
2023/01/13 15:09:34;;;;;;;;;;;;;;;;;;5105416;27;88142;-39
2023/01/13 15:12:00;;;;;;;;;;;;;;;;;;5105776;27;87230;-39
2023/01/13 15:14:25;;;;;;;;;;;;;;;;;;5105659;27;86885;-39
2023/01/13 15:16:51;;;;;;;;;;;;;;;;;;5108133;27;88179;-39
2023/01/13 15:19:17;;;;;;;;;;;;;;;;;;5105648;27;86911;-39
2023/01/13 15:21:43;;;;;;;;;;;;;;;;;;5105136;27;87218;-39
2023/01/13 15:24:09;;;;;;;;;;;;;;;;;;5105418;27;87487;-39
2023/01/13 15:26:36;;;;;;;;;;;;;;;;;;5104840;27;87697;-39
2023/01/13 15:29:02;;;;;;;;;;;;;;;;;;5104753;27;87965;-39
2023/01/13 15:31:28;;;;;;;;;;;;;;;;;;5105181;27;87126;-39
2023/01/13 15:33:53;;;;;;;;;;;;;;;;;;5105262;27;86927;-39
2023/01/13 15:36:19;;;;;;;;;;;;;;;;;;5104568;27;87891;-39
2023/01/13 15:38:45;;;;;;;;;;;;;;;;;;5108180;27;87042;-39
2023/01/13 15:41:11;;;;;;;;;;;;;;;;;;5104748;27;88478;-39
2023/01/13 15:46:37;;;;;;;;;;;;;;;;;;5104523;27;87484;-39
2023/01/13 15:49:07;;;;;;;;;;;;;;;;;;5104312;27;88166;-39
2023/01/13 15:51:33;;;;;;;;;;;;;;;;;;5104078;27;88075;-39
2023/01/13 15:54:01;;;;;;;;;;;;;;;;;;5104889;27;86937;-39
2023/01/13 15:56:27;;;;;;;;;;;;;;;;;;5104344;27;89328;-39
2023/01/13 15:58:54;;;;;;;;;;;;;;;;;;5104519;27;87138;-39
2023/01/13 16:01:20;;;;;;;;;;;;;;;;;;5107523;27;87424;-39
2023/01/13 16:03:46;;;;;;;;;;;;;;;;;;5104423;27;87418;-39
2023/01/13 16:06:12;;;;;;;;;;;;;;;;;;5104846;27;87161;-39
2023/01/13 16:08:38;;;;;;;;;;;;;;;;;;5105063;27;87179;-39
2023/01/13 16:11:04;;;;;;;;;;;;;;;;;;5104422;27;87142;-39
2023/01/13 16:13:30;;;;;;;;;;;;;;;;;;5104840;27;87030;-39
2023/01/13 16:15:56;;;;;;;;;;;;;;;;;;5103418;27;88774;-39
2023/01/13 16:18:24;;;;;;;;;;;;;;;;;;5104268;27;87015;-39
2023/01/13 16:20:54;;;;;;;;;;;;;;;;;;5104191;27;87531;-39
2023/01/13 16:23:20;;;;;;;;;;;;;;;;;;5107293;27;87975;-39
2023/01/13 16:25:46;;;;;;;;;;;;;;;;;;5104505;27;86967;-39
2023/01/13 16:28:12;;;;;;;;;;;;;;;;;;5103868;27;89058;-39
2023/01/13 16:30:39;;;;;;;;;;;;;;;;;;5104031;27;87968;-39
2023/01/13 16:33:05;;;;;;;;;;;;;;;;;;5104725;27;88290;-39
2023/01/13 16:35:31;;;;;;;;;;;;;;;;;;5104113;27;88318;-37
2023/01/13 16:38:00;;;;;;;;;;;;;;;;;;5104127;27;87010;-39
2023/01/13 16:40:25;;;;;;;;;;;;;;;;;;5103575;27;87957;-39
2023/01/13 16:42:51;;;;;;;;;;;;;;;;;;5104067;27;88224;-39
2023/01/13 16:45:17;;;;;;;;;;;;;;;;;;5106990;27;87253;-39
2023/01/13 16:47:43;;;;;;;;;;;;;;;;;;5103782;27;87959;-39
2023/01/13 16:50:09;;;;;;;;;;;;;;;;;;5104023;27;87150;-39
2023/01/13 16:52:35;;;;;;;;;;;;;;;;;;5104202;27;86980;-39
2023/01/13 16:55:01;;;;;;;;;;;;;;;;;;5103633;27;88105;-39
2023/01/13 16:57:27;;;;;;;;;;;;;;;;;;5104496;27;86462;-39
2023/01/13 16:59:52;;;;;;;;;;;;;;;;;;5104060;27;86833;-39
2023/01/13 17:02:18;;;;;;;;;;;;;;;;;;5103642;27;88186;-39
2023/01/13 17:04:44;;;;;;;;;;;;;;;;;;5106392;27;88260;-39
2023/01/13 17:07:11;;;;;;;;;;;;;;;;;;5103489;27;88087;-39
2023/01/13 17:09:37;;;;;;;;;;;;;;;;;;5103942;27;87150;-39
2023/01/13 17:12:03;;;;;;;;;;;;;;;;;;5104055;27;87120;-39
2023/01/13 17:14:29;;;;;;;;;;;;;;;;;;5103164;27;88089;-39
2023/01/13 17:16:54;;;;;;;;;;;;;;;;;;5103930;27;87161;-39
2023/01/13 17:19:20;;;;;;;;;;;;;;;;;;5103601;27;88443;-39
2023/01/13 17:21:46;;;;;;;;;;;;;;;;;;5103950;27;87364;-39
2023/01/13 17:24:12;;;;;;;;;;;;;;;;;;5103759;27;87466;-39
2023/01/13 17:26:40;;;;;;;;;;;;;;;;;;5106521;27;86970;-39
2023/01/13 17:29:07;;;;;;;;;;;;;;;;;;5102191;27;88318;-39
2023/01/13 17:31:33;;;;;;;;;;;;;;;;;;5106581;27;89353;-39
2023/01/13 17:33:59;;;;;;;;;;;;;;;;;;5106806;27;87247;-39
2023/01/13 17:36:25;;;;;;;;;;;;;;;;;;5107122;27;87192;-39
2023/01/13 17:38:51;;;;;;;;;;;;;;;;;;5106977;27;87004;-39